createdAt,value
2019-03-23T00:00:51.806Z,1023.64
2019-03-23T00:01:51.836Z,1023.67
2019-03-23T00:02:51.784Z,1023.67
2019-03-23T00:03:51.764Z,1023.62
2019-03-23T00:04:51.778Z,1023.57
2019-03-23T00:05:51.779Z,1023.61
2019-03-23T00:06:51.741Z,1023.59
2019-03-23T00:07:51.734Z,1023.56
2019-03-23T00:08:51.734Z,1023.61
2019-03-23T00:09:51.712Z,1023.56
2019-03-23T00:10:51.692Z,1023.55
2019-03-23T00:11:51.680Z,1023.52
2019-03-23T00:12:51.675Z,1023.51
2019-03-23T00:13:51.663Z,1023.54
2019-03-23T00:14:51.670Z,1023.50
2019-03-23T00:15:51.640Z,1023.46
2019-03-23T00:16:51.627Z,1023.50
2019-03-23T00:17:51.620Z,1023.43
2019-03-23T00:18:51.612Z,1023.43
2019-03-23T00:19:51.664Z,1023.42
2019-03-23T00:20:51.592Z,1023.42
2019-03-23T00:21:51.579Z,1023.50
2019-03-23T00:22:51.574Z,1023.44
2019-03-23T00:23:51.562Z,1023.44
2019-03-23T00:24:51.561Z,1023.45
2019-03-23T00:25:51.537Z,1023.44
2019-03-23T00:26:51.522Z,1023.43
2019-03-23T00:27:51.557Z,1023.46
2019-03-23T00:28:51.508Z,1023.45
2019-03-23T00:29:51.515Z,1023.44
2019-03-23T00:30:51.484Z,1023.47
2019-03-23T00:31:51.472Z,1023.46
2019-03-23T00:32:51.462Z,1023.46
2019-03-23T00:33:51.487Z,1023.44
2019-03-23T00:34:51.458Z,1023.43
2019-03-23T00:35:51.430Z,1023.42
2019-03-23T00:36:51.428Z,1023.36
2019-03-23T00:37:51.408Z,1023.33
2019-03-23T00:38:51.397Z,1023.27
2019-03-23T00:39:51.405Z,1023.25
2019-03-23T00:40:51.391Z,1023.27
2019-03-23T00:41:51.387Z,1023.25
2019-03-23T00:42:51.353Z,1023.23
2019-03-23T00:43:51.345Z,1023.10
2019-03-23T00:44:51.351Z,1023.20
2019-03-23T00:45:51.319Z,1023.19
2019-03-23T00:46:51.312Z,1023.16
2019-03-23T00:47:51.362Z,1023.12
2019-03-23T00:48:51.295Z,1023.08
2019-03-23T00:49:51.294Z,1023.05
2019-03-23T00:50:51.269Z,1023.10
2019-03-23T00:51:51.254Z,1023.04
2019-03-23T00:52:51.257Z,1023.08
2019-03-23T00:53:51.237Z,1023.06
2019-03-23T00:54:51.303Z,1023.08
2019-03-23T00:55:51.215Z,1023.00
2019-03-23T00:56:51.226Z,1023.00
2019-03-23T00:57:51.192Z,1023.06
2019-03-23T00:58:51.181Z,1023.07
2019-03-23T00:59:51.185Z,1022.99
2019-03-23T01:00:51.197Z,1023.03
2019-03-23T01:01:51.149Z,1023.00
2019-03-23T01:02:51.146Z,1022.99
2019-03-23T01:03:51.127Z,1022.96
2019-03-23T01:04:51.131Z,1023.02
2019-03-23T01:05:51.111Z,1023.00
2019-03-23T01:06:52.327Z,1022.95
2019-03-23T01:07:51.087Z,1022.97
2019-03-23T01:08:51.079Z,1022.88
2019-03-23T01:09:51.101Z,1022.87
2019-03-23T01:10:51.053Z,1022.84
2019-03-23T01:11:51.055Z,1022.86
2019-03-23T01:12:51.037Z,1022.86
2019-03-23T01:13:51.023Z,1022.88
2019-03-23T01:14:51.058Z,1022.84
2019-03-23T01:15:51.055Z,1022.89
2019-03-23T01:16:50.991Z,1022.86
2019-03-23T01:17:50.985Z,1022.84
2019-03-23T01:18:50.973Z,1022.84
2019-03-23T01:19:51.013Z,1022.88
2019-03-23T01:20:50.949Z,1022.89
2019-03-23T01:21:50.941Z,1022.88
2019-03-23T01:22:50.927Z,1022.87
2019-03-23T01:23:51.013Z,1022.83
2019-03-23T01:24:50.921Z,1022.82
2019-03-23T01:25:50.893Z,1022.82
2019-03-23T01:26:50.914Z,1022.78
2019-03-23T01:27:50.881Z,1022.77
2019-03-23T01:28:50.870Z,1022.71
2019-03-23T01:29:50.865Z,1022.74
2019-03-23T01:30:50.874Z,1022.64
2019-03-23T01:31:50.828Z,1022.69
2019-03-23T01:32:50.815Z,1022.69
2019-03-23T01:33:50.808Z,1022.69
2019-03-23T01:34:50.807Z,1022.73
2019-03-23T01:35:50.788Z,1022.65
2019-03-23T01:36:50.802Z,1022.72
2019-03-23T01:37:50.774Z,1022.67
2019-03-23T01:38:50.756Z,1022.68
2019-03-23T01:39:50.756Z,1022.70
2019-03-23T01:40:50.739Z,1022.65
2019-03-23T01:41:50.726Z,1022.63
2019-03-23T01:42:50.712Z,1022.58
2019-03-23T01:43:50.701Z,1022.58
2019-03-23T01:44:50.724Z,1022.54
2019-03-23T01:45:50.683Z,1022.52
2019-03-23T01:46:50.670Z,1022.54
2019-03-23T01:47:50.668Z,1022.52
2019-03-23T01:48:50.648Z,1022.48
2019-03-23T01:49:50.636Z,1022.35
2019-03-23T01:50:50.640Z,1022.43
2019-03-23T01:51:50.622Z,1022.37
2019-03-23T01:52:50.610Z,1022.37
2019-03-23T01:53:50.636Z,1022.38
2019-03-23T01:54:50.583Z,1022.34
2019-03-23T01:55:50.589Z,1022.33
2019-03-23T01:56:50.569Z,1022.29
2019-03-23T01:57:50.554Z,1022.36
2019-03-23T01:58:50.544Z,1022.35
2019-03-23T01:59:50.528Z,1022.28
2019-03-23T02:00:50.590Z,1022.31
2019-03-23T02:01:50.512Z,1022.28
2019-03-23T02:02:50.503Z,1022.20
2019-03-23T02:03:50.492Z,1022.28
2019-03-23T02:04:50.479Z,1022.21
2019-03-23T02:05:50.490Z,1022.24
2019-03-23T02:06:50.459Z,1022.23
2019-03-23T02:07:50.488Z,1022.26
2019-03-23T02:08:50.440Z,1022.16
2019-03-23T02:09:50.431Z,1022.17
2019-03-23T02:10:50.430Z,1022.24
2019-03-23T02:11:50.414Z,1022.24
2019-03-23T02:12:50.399Z,1022.19
2019-03-23T02:13:50.383Z,1022.18
2019-03-23T02:14:50.405Z,1022.23
2019-03-23T02:15:50.373Z,1022.22
2019-03-23T02:16:50.355Z,1022.25
2019-03-23T02:17:50.336Z,1022.22
2019-03-23T02:18:50.336Z,1022.23
2019-03-23T02:19:50.316Z,1022.20
2019-03-23T02:20:50.317Z,1022.19
2019-03-23T02:21:50.326Z,1022.16
2019-03-23T02:22:50.279Z,1022.17
2019-03-23T02:23:50.275Z,1022.27
2019-03-23T02:24:50.263Z,1022.27
2019-03-23T02:25:50.269Z,1022.21
2019-03-23T02:26:50.239Z,1022.24
2019-03-23T02:27:50.234Z,1022.25
2019-03-23T02:28:50.235Z,1022.22
2019-03-23T02:29:50.208Z,1022.27
2019-03-23T02:30:50.214Z,1022.21
2019-03-23T02:31:50.185Z,1022.25
2019-03-23T02:32:50.178Z,1022.21
2019-03-23T02:33:50.166Z,1022.24
2019-03-23T02:34:50.152Z,1022.22
2019-03-23T02:35:50.174Z,1022.19
2019-03-23T02:36:50.134Z,1022.19
2019-03-23T02:37:50.120Z,1022.21
2019-03-23T02:38:50.113Z,1022.11
2019-03-23T02:39:50.107Z,1022.15
2019-03-23T02:40:50.106Z,1022.22
2019-03-23T02:41:50.091Z,1022.14
2019-03-23T02:42:50.066Z,1022.22
2019-03-23T02:43:50.065Z,1022.14
2019-03-23T02:44:50.048Z,1022.18
2019-03-23T02:45:50.051Z,1022.15
2019-03-23T02:46:50.058Z,1022.20
2019-03-23T02:47:50.009Z,1022.16
2019-03-23T02:48:50.001Z,1022.15
2019-03-23T02:49:49.990Z,1022.17
2019-03-23T02:50:50.011Z,1022.15
2019-03-23T02:51:49.973Z,1022.17
2019-03-23T02:52:49.996Z,1022.10
2019-03-23T02:53:49.946Z,1022.14
2019-03-23T02:54:49.939Z,1022.11
2019-03-23T02:55:49.921Z,1022.15
2019-03-23T02:56:49.924Z,1022.12
2019-03-23T02:57:49.901Z,1022.16
2019-03-23T02:58:49.899Z,1022.27
2019-03-23T02:59:49.886Z,1022.13
2019-03-23T03:00:49.875Z,1022.18
2019-03-23T03:01:49.875Z,1022.16
2019-03-23T03:02:49.866Z,1022.16
2019-03-23T03:03:49.850Z,1022.11
2019-03-23T03:04:49.827Z,1022.15
2019-03-23T03:05:49.812Z,1022.17
2019-03-23T03:06:49.812Z,1022.12
2019-03-23T03:07:49.795Z,1022.13
2019-03-23T03:08:49.796Z,1022.10
2019-03-23T03:09:49.777Z,1022.10
2019-03-23T03:10:49.759Z,1022.14
2019-03-23T03:11:49.761Z,1022.11
2019-03-23T03:12:49.740Z,1022.04
2019-03-23T03:13:49.722Z,1022.06
2019-03-23T03:14:49.711Z,1022.10
2019-03-23T03:15:49.709Z,1022.07
2019-03-23T03:16:49.713Z,1022.10
2019-03-23T03:17:49.702Z,1022.02
2019-03-23T03:18:49.668Z,1022.01
2019-03-23T03:19:49.661Z,1022.03
2019-03-23T03:20:49.646Z,1022.09
2019-03-23T03:21:49.673Z,1022.08
2019-03-23T03:22:49.638Z,1022.04
2019-03-23T03:23:49.618Z,1022.08
2019-03-23T03:24:49.608Z,1022.14
2019-03-23T03:25:49.596Z,1022.13
2019-03-23T03:26:49.622Z,1022.17
2019-03-23T03:27:49.593Z,1022.22
2019-03-23T03:28:49.563Z,1022.20
2019-03-23T03:29:49.560Z,1022.17
2019-03-23T03:30:49.540Z,1022.27
2019-03-23T03:31:49.531Z,1022.17
2019-03-23T03:32:49.529Z,1022.25
2019-03-23T03:33:49.586Z,1022.17
2019-03-23T03:34:49.505Z,1022.14
2019-03-23T03:35:49.481Z,1022.17
2019-03-23T03:36:49.487Z,1022.07
2019-03-23T03:37:56.328Z,1022.11
2019-03-23T03:38:50.451Z,1022.08
2019-03-23T03:39:49.501Z,1022.07
2019-03-23T03:40:49.437Z,1022.07
2019-03-23T03:41:49.420Z,1022.08
2019-03-23T03:42:49.427Z,1022.06
2019-03-23T03:43:49.399Z,1022.09
2019-03-23T03:44:49.386Z,1022.04
2019-03-23T03:45:49.380Z,1022.08
2019-03-23T03:46:49.364Z,1022.16
2019-03-23T03:47:49.411Z,1022.12
2019-03-23T03:48:49.356Z,1022.08
2019-03-23T03:49:49.337Z,1022.08
2019-03-23T03:50:49.320Z,1022.08
2019-03-23T03:51:49.320Z,1022.09
2019-03-23T03:52:49.336Z,1022.08
2019-03-23T03:53:49.289Z,1022.04
2019-03-23T03:54:49.303Z,1022.08
2019-03-23T03:55:49.275Z,1022.09
2019-03-23T03:56:49.256Z,1022.08
2019-03-23T03:57:49.265Z,1022.06
2019-03-23T03:58:49.232Z,1022.03
2019-03-23T03:59:49.217Z,1022.03
2019-03-23T04:00:49.242Z,1022.04
2019-03-23T04:01:49.207Z,1021.92
2019-03-23T04:02:49.231Z,1021.94
2019-03-23T04:03:49.178Z,1022.00
2019-03-23T04:04:49.168Z,1021.95
2019-03-23T04:05:49.166Z,1021.93
2019-03-23T04:06:49.145Z,1021.97
2019-03-23T04:07:49.132Z,1021.99
2019-03-23T04:08:49.154Z,1021.94
2019-03-23T04:09:49.117Z,1021.93
2019-03-23T04:10:49.099Z,1021.92
2019-03-23T04:11:49.090Z,1021.96
2019-03-23T04:12:49.085Z,1021.92
2019-03-23T04:13:49.084Z,1021.94
2019-03-23T04:14:49.068Z,1021.89
2019-03-23T04:15:49.043Z,1021.93
2019-03-23T04:16:49.033Z,1021.92
2019-03-23T04:17:49.035Z,1021.90
2019-03-23T04:18:49.091Z,1021.92
2019-03-23T04:19:49.006Z,1021.90
2019-03-23T04:20:48.997Z,1021.96
2019-03-23T04:21:48.978Z,1021.92
2019-03-23T04:22:49.006Z,1022.01
2019-03-23T04:23:48.982Z,1021.95
2019-03-23T04:24:48.957Z,1021.92
2019-03-23T04:25:48.935Z,1021.89
2019-03-23T04:26:48.930Z,1021.96
2019-03-23T04:27:48.915Z,1021.97
2019-03-23T04:28:48.972Z,1021.91
2019-03-23T04:29:48.899Z,1021.89
2019-03-23T04:30:48.887Z,1021.93
2019-03-23T04:31:48.882Z,1021.89
2019-03-23T04:32:48.865Z,1021.87
2019-03-23T04:33:48.911Z,1021.90
2019-03-23T04:34:48.846Z,1021.82
2019-03-23T04:35:48.825Z,1021.85
2019-03-23T04:36:48.814Z,1021.85
2019-03-23T04:37:48.836Z,1021.90
2019-03-23T04:38:48.807Z,1021.88
2019-03-23T04:39:48.792Z,1021.83
2019-03-23T04:40:48.807Z,1021.87
2019-03-23T04:41:48.763Z,1021.80
2019-03-23T04:42:48.758Z,1021.79
2019-03-23T04:43:48.754Z,1021.82
2019-03-23T04:44:48.732Z,1021.79
2019-03-23T04:45:48.722Z,1021.76
2019-03-23T04:46:48.734Z,1021.78
2019-03-23T04:47:48.698Z,1021.70
2019-03-23T04:48:48.704Z,1021.75
2019-03-23T04:49:48.672Z,1021.74
2019-03-23T04:50:48.662Z,1021.75
2019-03-23T04:51:48.658Z,1021.77
2019-03-23T04:52:48.674Z,1021.73
2019-03-23T04:53:48.670Z,1021.68
2019-03-23T04:54:48.625Z,1021.75
2019-03-23T04:55:48.612Z,1021.68
2019-03-23T04:56:48.597Z,1021.68
2019-03-23T04:57:48.590Z,1021.70
2019-03-23T04:58:48.591Z,1021.70
2019-03-23T04:59:48.572Z,1021.70
2019-03-23T05:00:48.599Z,1021.64
2019-03-23T05:01:48.556Z,1021.73
2019-03-23T05:02:48.544Z,1021.70
2019-03-23T05:03:48.543Z,1021.74
2019-03-23T05:04:48.521Z,1021.68
2019-03-23T05:05:48.503Z,1021.76
2019-03-23T05:06:48.522Z,1021.78
2019-03-23T05:07:48.528Z,1021.80
2019-03-23T05:08:48.493Z,1021.69
2019-03-23T05:09:48.459Z,1021.72
2019-03-23T05:10:48.456Z,1021.70
2019-03-23T05:11:48.445Z,1021.70
2019-03-23T05:12:48.438Z,1021.65
2019-03-23T05:13:48.433Z,1021.62
2019-03-23T05:14:48.409Z,1021.71
2019-03-23T05:15:48.397Z,1021.68
2019-03-23T05:16:48.387Z,1021.61
2019-03-23T05:17:48.420Z,1021.63
2019-03-23T05:18:48.387Z,1021.69
2019-03-23T05:19:48.351Z,1021.66
2019-03-23T05:20:48.352Z,1021.60
2019-03-23T05:21:48.333Z,1021.66
2019-03-23T05:22:48.318Z,1021.65
2019-03-23T05:23:48.379Z,1021.65
2019-03-23T05:24:48.308Z,1021.64
2019-03-23T05:25:48.289Z,1021.68
2019-03-23T05:26:48.289Z,1021.70
2019-03-23T05:27:48.265Z,1021.63
2019-03-23T05:28:48.269Z,1021.67
2019-03-23T05:29:48.304Z,1021.65
2019-03-23T05:30:48.231Z,1021.68
2019-03-23T05:31:48.228Z,1021.61
2019-03-23T05:32:48.213Z,1021.68
2019-03-23T05:33:48.207Z,1021.63
2019-03-23T05:34:48.203Z,1021.62
2019-03-23T05:35:48.187Z,1021.70
2019-03-23T05:36:48.171Z,1021.75
2019-03-23T05:37:48.165Z,1021.72
2019-03-23T05:38:48.147Z,1021.66
2019-03-23T05:39:48.165Z,1021.67
2019-03-23T05:40:48.124Z,1021.68
2019-03-23T05:41:48.139Z,1021.67
2019-03-23T05:42:48.105Z,1021.68
2019-03-23T05:43:48.092Z,1021.71
2019-03-23T05:44:48.130Z,1021.67
2019-03-23T05:45:48.079Z,1021.69
2019-03-23T05:46:48.069Z,1021.58
2019-03-23T05:47:48.050Z,1021.63
2019-03-23T05:48:48.035Z,1021.66
2019-03-23T05:49:48.064Z,1021.66
2019-03-23T05:50:48.012Z,1021.66
2019-03-23T05:51:48.015Z,1021.64
2019-03-23T05:52:48.004Z,1021.65
2019-03-23T05:53:47.983Z,1021.62
2019-03-23T05:54:48.004Z,1021.61
2019-03-23T05:55:47.972Z,1021.64
2019-03-23T05:56:47.950Z,1021.54
2019-03-23T05:57:48.009Z,1021.60
2019-03-23T05:58:47.971Z,1021.53
2019-03-23T05:59:47.942Z,1021.54
2019-03-23T06:00:47.922Z,1021.60
2019-03-23T06:01:47.906Z,1021.62
2019-03-23T06:02:47.922Z,1021.58
2019-03-23T06:03:47.876Z,1021.61
2019-03-23T06:04:47.895Z,1021.58
2019-03-23T06:05:47.863Z,1021.64
2019-03-23T06:06:47.846Z,1021.62
2019-03-23T06:07:47.840Z,1021.61
2019-03-23T06:08:54.885Z,1021.66
2019-03-23T06:09:48.836Z,1021.62
2019-03-23T06:10:47.808Z,1021.65
2019-03-23T06:11:47.805Z,1021.63
2019-03-23T06:12:47.796Z,1021.67
2019-03-23T06:13:47.772Z,1021.74
2019-03-23T06:14:47.810Z,1021.67
2019-03-23T06:15:47.771Z,1021.76
2019-03-23T06:16:47.732Z,1021.76
2019-03-23T06:17:47.734Z,1021.82
2019-03-23T06:18:47.783Z,1021.78
2019-03-23T06:19:47.709Z,1021.82
2019-03-23T06:20:47.702Z,1021.73
2019-03-23T06:21:47.689Z,1021.73
2019-03-23T06:22:47.686Z,1021.80
2019-03-23T06:23:47.657Z,1021.73
2019-03-23T06:24:47.646Z,1021.74
2019-03-23T06:25:47.660Z,1021.74
2019-03-23T06:26:47.628Z,1021.80
2019-03-23T06:27:47.622Z,1021.74
2019-03-23T06:28:47.605Z,1021.82
2019-03-23T06:29:47.599Z,1021.79
2019-03-23T06:30:47.609Z,1021.77
2019-03-23T06:31:47.583Z,1021.79
2019-03-23T06:32:47.577Z,1021.78
2019-03-23T06:33:47.551Z,1021.80
2019-03-23T06:34:47.541Z,1021.81
2019-03-23T06:35:47.622Z,1021.80
2019-03-23T06:36:47.522Z,1021.81
2019-03-23T06:37:47.510Z,1021.84
2019-03-23T06:38:47.514Z,1021.78
2019-03-23T06:39:47.494Z,1021.81
2019-03-23T06:40:47.485Z,1021.81
2019-03-23T06:41:47.509Z,1021.79
2019-03-23T06:42:47.459Z,1021.80
2019-03-23T06:43:47.472Z,1021.80
2019-03-23T06:44:47.435Z,1021.78
2019-03-23T06:45:47.439Z,1021.72
2019-03-23T06:46:47.422Z,1021.74
2019-03-23T06:47:47.437Z,1021.79
2019-03-23T06:48:47.389Z,1021.79
2019-03-23T06:49:47.386Z,1021.81
2019-03-23T06:50:47.389Z,1021.83
2019-03-23T06:51:47.356Z,1021.84
2019-03-23T06:52:47.352Z,1021.84
2019-03-23T06:53:47.337Z,1021.88
2019-03-23T06:54:47.383Z,1021.83
2019-03-23T06:55:47.344Z,1021.88
2019-03-23T06:56:47.308Z,1021.84
2019-03-23T06:57:47.286Z,1021.81
2019-03-23T06:58:47.292Z,1021.74
2019-03-23T06:59:47.354Z,1021.73
2019-03-23T07:00:47.271Z,1021.82
2019-03-23T07:01:47.265Z,1021.76
2019-03-23T07:02:47.246Z,1021.76
2019-03-23T07:03:47.228Z,1021.75
2019-03-23T07:04:47.226Z,1021.69
2019-03-23T07:05:47.206Z,1021.73
2019-03-23T07:06:47.212Z,1021.70
2019-03-23T07:07:47.184Z,1021.67
2019-03-23T07:08:47.176Z,1021.77
2019-03-23T07:09:47.160Z,1021.83
2019-03-23T07:10:47.160Z,1021.91
2019-03-23T07:11:47.154Z,1022.10
2019-03-23T07:12:47.147Z,1022.07
2019-03-23T07:13:47.126Z,1022.02
2019-03-23T07:14:47.140Z,1022.01
2019-03-23T07:15:47.099Z,1021.94
2019-03-23T07:16:47.108Z,1021.95
2019-03-23T07:17:47.076Z,1021.95
2019-03-23T07:18:47.069Z,1021.90
2019-03-23T07:19:47.062Z,1021.91
2019-03-23T07:20:47.050Z,1021.87
2019-03-23T07:21:47.050Z,1021.96
2019-03-23T07:22:47.026Z,1022.00
2019-03-23T07:23:47.042Z,1022.03
2019-03-23T07:24:47.000Z,1022.09
2019-03-23T07:25:46.988Z,1022.10
2019-03-23T07:26:46.998Z,1022.08
2019-03-23T07:27:46.976Z,1022.03
2019-03-23T07:28:46.962Z,1022.09
2019-03-23T07:29:46.962Z,1022.13
2019-03-23T07:30:46.936Z,1022.18
2019-03-23T07:31:46.953Z,1022.14
2019-03-23T07:32:46.968Z,1022.15
2019-03-23T07:33:46.902Z,1022.28
2019-03-23T07:34:46.894Z,1022.47
2019-03-23T07:35:46.879Z,1022.87
2019-03-23T07:36:46.884Z,1022.80
2019-03-23T07:37:46.871Z,1022.61
2019-03-23T07:38:46.858Z,1022.53
2019-03-23T07:39:46.856Z,1022.53
2019-03-23T07:40:46.835Z,1022.47
2019-03-23T07:41:46.848Z,1022.46
2019-03-23T07:42:46.832Z,1022.58
2019-03-23T07:43:46.821Z,1022.60
2019-03-23T07:44:46.785Z,1022.60
2019-03-23T07:45:46.801Z,1022.64
2019-03-23T07:46:46.778Z,1022.46
2019-03-23T07:47:46.750Z,1022.53
2019-03-23T07:48:46.747Z,1022.49
2019-03-23T07:49:46.739Z,1022.49
2019-03-23T07:50:46.725Z,1022.46
2019-03-23T07:51:46.731Z,1022.46
2019-03-23T07:52:46.706Z,1022.50
2019-03-23T07:53:46.701Z,1022.56
2019-03-23T07:54:46.680Z,1022.75
2019-03-23T07:55:46.666Z,1022.98
2019-03-23T07:56:46.694Z,1022.82
2019-03-23T07:57:46.648Z,1022.63
2019-03-23T07:58:46.633Z,1022.63
2019-03-23T07:59:46.637Z,1022.43
2019-03-23T08:00:46.620Z,1022.44
2019-03-23T08:01:46.615Z,1022.41
2019-03-23T08:02:46.607Z,1022.35
2019-03-23T08:03:46.583Z,1022.39
2019-03-23T08:04:46.575Z,1022.33
2019-03-23T08:05:46.581Z,1022.37
2019-03-23T08:06:46.593Z,1022.31
2019-03-23T08:07:46.556Z,1022.35
2019-03-23T08:08:46.531Z,1022.31
2019-03-23T08:09:46.525Z,1022.23
2019-03-23T08:10:46.513Z,1022.36
2019-03-23T08:11:46.519Z,1022.39
2019-03-23T08:12:46.487Z,1022.40
2019-03-23T08:13:46.490Z,1022.32
2019-03-23T08:14:46.469Z,1022.37
2019-03-23T08:15:46.482Z,1022.41
2019-03-23T08:16:46.469Z,1022.35
2019-03-23T08:17:46.449Z,1022.42
2019-03-23T08:18:46.427Z,1022.30
2019-03-23T08:19:46.427Z,1022.32
2019-03-23T08:20:46.409Z,1022.35
2019-03-23T08:21:46.442Z,1022.33
2019-03-23T08:22:46.394Z,1022.14
2019-03-23T08:23:46.387Z,1022.18
2019-03-23T08:24:46.359Z,1022.26
2019-03-23T08:25:46.353Z,1022.25
2019-03-23T08:26:46.366Z,1022.29
2019-03-23T08:27:46.331Z,1022.16
2019-03-23T08:28:46.325Z,1022.06
2019-03-23T08:29:46.318Z,1022.03
2019-03-23T08:30:46.310Z,1022.21
2019-03-23T08:31:46.330Z,1022.16
2019-03-23T08:32:46.309Z,1022.25
2019-03-23T08:33:46.292Z,1022.15
2019-03-23T08:34:46.256Z,1022.13
2019-03-23T08:35:46.252Z,1022.16
2019-03-23T08:36:46.293Z,1022.11
2019-03-23T08:37:46.232Z,1022.09
2019-03-23T08:38:46.214Z,1021.98
2019-03-23T08:39:48.623Z,1021.97
2019-03-23T08:40:46.192Z,1021.97
2019-03-23T08:41:46.214Z,1021.99
2019-03-23T08:42:46.176Z,1021.95
2019-03-23T08:43:46.205Z,1021.83
2019-03-23T08:44:46.150Z,1021.86
2019-03-23T08:45:46.166Z,1021.76
2019-03-23T08:46:46.375Z,1021.96
2019-03-23T08:47:46.134Z,1022.06
2019-03-23T08:48:46.114Z,1021.83
2019-03-23T08:49:46.106Z,1021.91
2019-03-23T08:50:46.092Z,1022.09
2019-03-23T08:51:46.077Z,1021.91
2019-03-23T08:52:46.080Z,1021.77
2019-03-23T08:53:46.079Z,1021.73
2019-03-23T08:54:46.075Z,1021.84
2019-03-23T08:55:46.038Z,1021.87
2019-03-23T08:56:46.030Z,1021.91
2019-03-23T08:57:46.032Z,1021.86
2019-03-23T08:58:46.003Z,1021.79
2019-03-23T08:59:45.994Z,1021.82
2019-03-23T09:00:45.986Z,1021.79
2019-03-23T09:01:46.000Z,1021.77
2019-03-23T09:02:45.994Z,1021.75
2019-03-23T09:03:52.432Z,1021.73
2019-03-23T09:04:46.949Z,1021.80
2019-03-23T09:05:45.928Z,1021.93
2019-03-23T09:06:45.915Z,1021.92
2019-03-23T09:07:45.934Z,1021.90
2019-03-23T09:08:45.933Z,1022.11
2019-03-23T09:09:45.892Z,1022.06
2019-03-23T09:10:45.910Z,1021.84
2019-03-23T09:11:45.871Z,1021.96
2019-03-23T09:12:45.867Z,1022.02
2019-03-23T09:13:45.879Z,1022.04
2019-03-23T09:14:45.874Z,1022.13
2019-03-23T09:15:45.837Z,1022.04
2019-03-23T09:16:45.825Z,1021.91
2019-03-23T09:17:45.807Z,1021.77
2019-03-23T09:18:45.826Z,1021.74
2019-03-23T09:19:45.782Z,1021.88
2019-03-23T09:20:45.782Z,1021.97
2019-03-23T09:21:45.798Z,1022.02
2019-03-23T09:22:45.752Z,1021.98
2019-03-23T09:23:45.766Z,1021.90
2019-03-23T09:24:45.733Z,1021.81
2019-03-23T09:25:45.903Z,1021.85
2019-03-23T09:26:45.749Z,1022.04
2019-03-23T09:27:45.693Z,1022.01
2019-03-23T09:28:45.697Z,1022.18
2019-03-23T09:29:45.671Z,1022.18
2019-03-23T09:30:45.680Z,1022.05
2019-03-23T09:31:45.663Z,1021.98
2019-03-23T09:32:45.648Z,1022.11
2019-03-23T09:33:45.648Z,1022.13
2019-03-23T09:34:45.644Z,1022.08
2019-03-23T09:35:45.613Z,1022.29
2019-03-23T09:36:45.602Z,1022.39
2019-03-23T09:37:45.609Z,1022.22
2019-03-23T09:38:45.633Z,1022.06
2019-03-23T09:39:45.567Z,1022.04
2019-03-23T09:40:45.572Z,1022.18
2019-03-23T09:41:45.558Z,1022.23
2019-03-23T09:42:45.552Z,1022.16
2019-03-23T09:43:45.553Z,1022.21
2019-03-23T09:44:45.513Z,1022.18
2019-03-23T09:45:45.518Z,1022.21
2019-03-23T09:46:45.493Z,1022.27
2019-03-23T09:47:45.494Z,1022.25
2019-03-23T09:48:45.496Z,1022.39
2019-03-23T09:49:45.476Z,1022.32
2019-03-23T09:50:45.473Z,1022.26
2019-03-23T09:51:45.438Z,1022.30
2019-03-23T09:52:45.474Z,1022.17
2019-03-23T09:53:45.450Z,1022.25
2019-03-23T09:54:45.414Z,1022.31
2019-03-23T09:55:45.407Z,1022.36
2019-03-23T09:56:45.388Z,1022.31
2019-03-23T09:57:45.452Z,1022.44
2019-03-23T09:58:45.368Z,1022.46
2019-03-23T09:59:45.370Z,1022.32
2019-03-23T10:00:45.389Z,1022.34
2019-03-23T10:01:45.335Z,1022.28
2019-03-23T10:02:45.325Z,1022.15
2019-03-23T10:03:45.329Z,1022.39
2019-03-23T10:04:45.314Z,1022.34
2019-03-23T10:05:45.296Z,1022.29
2019-03-23T10:06:45.282Z,1022.30
2019-03-23T10:07:45.275Z,1022.32
2019-03-23T10:08:46.475Z,1022.35
2019-03-23T10:09:45.271Z,1022.32
2019-03-23T10:10:45.254Z,1022.32
2019-03-23T10:11:45.236Z,1022.41
2019-03-23T10:12:45.227Z,1022.48
2019-03-23T10:13:45.212Z,1022.38
2019-03-23T10:14:45.217Z,1022.53
2019-03-23T10:15:45.194Z,1022.67
2019-03-23T10:16:45.184Z,1022.23
2019-03-23T10:17:45.174Z,1022.42
2019-03-23T10:18:45.159Z,1022.41
2019-03-23T10:19:45.163Z,1022.43
2019-03-23T10:20:45.149Z,1022.52
2019-03-23T10:21:45.132Z,1022.54
2019-03-23T10:22:45.117Z,1022.62
2019-03-23T10:23:45.109Z,1022.47
2019-03-23T10:24:45.123Z,1022.50
2019-03-23T10:25:45.090Z,1022.57
2019-03-23T10:26:45.078Z,1022.39
2019-03-23T10:27:45.080Z,1022.12
2019-03-23T10:28:45.055Z,1022.32
2019-03-23T10:29:45.090Z,1022.40
2019-03-23T10:30:45.034Z,1022.34
2019-03-23T10:31:45.073Z,1022.36
2019-03-23T10:32:45.011Z,1022.57
2019-03-23T10:33:45.002Z,1022.16
2019-03-23T10:34:44.997Z,1022.26
2019-03-23T10:35:44.997Z,1022.35
2019-03-23T10:36:45.004Z,1022.51
2019-03-23T10:37:44.958Z,1022.48
2019-03-23T10:38:44.949Z,1022.19
2019-03-23T10:39:44.939Z,1022.17
2019-03-23T10:40:44.955Z,1022.19
2019-03-23T10:41:44.920Z,1022.18
2019-03-23T10:42:44.936Z,1022.29
2019-03-23T10:43:44.918Z,1022.31
2019-03-23T10:44:44.895Z,1022.47
2019-03-23T10:45:44.893Z,1022.30
2019-03-23T10:46:44.869Z,1022.28
2019-03-23T10:47:44.992Z,1022.37
2019-03-23T10:48:44.841Z,1022.48
2019-03-23T10:49:44.841Z,1022.41
2019-03-23T10:50:44.859Z,1022.70
2019-03-23T10:51:44.828Z,1022.73
2019-03-23T10:52:44.803Z,1022.70
2019-03-23T10:53:44.789Z,1022.33
2019-03-23T10:54:44.781Z,1023.03
2019-03-23T10:55:44.779Z,1022.78
2019-03-23T10:56:44.787Z,1022.73
2019-03-23T10:57:44.777Z,1022.73
2019-03-23T10:58:44.745Z,1022.84
2019-03-23T10:59:44.725Z,1022.79
2019-03-23T11:00:44.716Z,1022.84
2019-03-23T11:01:44.728Z,1022.85
2019-03-23T11:02:44.703Z,1022.46
2019-03-23T11:03:44.687Z,1022.55
2019-03-23T11:04:44.691Z,1022.76
2019-03-23T11:05:44.681Z,1022.65
2019-03-23T11:06:44.701Z,1022.49
2019-03-23T11:07:44.642Z,1022.45
2019-03-23T11:08:44.629Z,1022.58
2019-03-23T11:09:44.628Z,1022.62
2019-03-23T11:10:44.611Z,1022.84
2019-03-23T11:11:44.624Z,1022.81
2019-03-23T11:12:44.590Z,1022.95
2019-03-23T11:13:44.574Z,1022.84
2019-03-23T11:14:44.569Z,1022.93
2019-03-23T11:15:44.559Z,1022.95
2019-03-23T11:16:44.563Z,1023.00
2019-03-23T11:17:44.560Z,1022.90
2019-03-23T11:18:44.522Z,1022.70
2019-03-23T11:19:44.512Z,1022.70
2019-03-23T11:20:44.498Z,1022.74
2019-03-23T11:21:44.514Z,1023.03
2019-03-23T11:22:44.483Z,1022.98
2019-03-23T11:23:45.595Z,1023.01
2019-03-23T11:24:44.478Z,1023.16
2019-03-23T11:25:44.447Z,1023.09
2019-03-23T11:26:44.437Z,1023.13
2019-03-23T11:27:44.442Z,1023.08
2019-03-23T11:28:44.469Z,1023.13
2019-03-23T11:29:44.403Z,1023.09
2019-03-23T11:30:44.405Z,1023.14
2019-03-23T11:31:44.382Z,1023.14
2019-03-23T11:32:44.398Z,1023.12
2019-03-23T11:33:44.365Z,1023.02
2019-03-23T11:34:44.357Z,1022.97
2019-03-23T11:35:44.342Z,1023.28
2019-03-23T11:36:44.342Z,1023.23
2019-03-23T11:37:44.694Z,1023.23
2019-03-23T11:38:44.333Z,1022.97
2019-03-23T11:39:44.306Z,1023.13
2019-03-23T11:40:52.177Z,1023.12
2019-03-23T11:41:45.280Z,1023.16
2019-03-23T11:42:50.020Z,1023.14
2019-03-23T11:43:45.262Z,1023.16
2019-03-23T11:44:44.337Z,1023.22
2019-03-23T11:45:44.246Z,1023.26
2019-03-23T11:46:44.232Z,1023.27
2019-03-23T11:47:44.223Z,1023.35
2019-03-23T11:48:44.224Z,1023.41
2019-03-23T11:49:44.200Z,1023.52
2019-03-23T11:50:44.194Z,1023.59
2019-03-23T11:51:44.202Z,1023.54
2019-03-23T11:52:44.180Z,1023.59
2019-03-23T11:53:44.178Z,1023.54
2019-03-23T11:54:44.152Z,1023.67
2019-03-23T11:55:44.139Z,1023.67
2019-03-23T11:56:44.138Z,1023.62
2019-03-23T11:57:44.126Z,1023.66
2019-03-23T11:58:44.181Z,1023.64
2019-03-23T11:59:44.100Z,1023.67
2019-03-23T12:00:44.095Z,1023.67
2019-03-23T12:01:51.452Z,1023.65
2019-03-23T12:02:45.104Z,1023.61
2019-03-23T12:03:44.062Z,1023.41
2019-03-23T12:04:44.049Z,1023.54
2019-03-23T12:05:44.040Z,1023.42